sensor_id;sensor_type;location;lat;lon;timestamp;temperature;humidity
67557;DHT22;54387;53.526;49.300;2023-08-08T00:02:21;19.80;55.30
67557;DHT22;54387;53.526;49.300;2023-08-08T00:04:48;19.70;56.20
67557;DHT22;54387;53.526;49.300;2023-08-08T00:07:14;19.80;55.70
67557;DHT22;54387;53.526;49.300;2023-08-08T00:09:40;19.70;55.90
67557;DHT22;54387;53.526;49.300;2023-08-08T00:12:06;19.70;56.00
67557;DHT22;54387;53.526;49.300;2023-08-08T00:14:32;19.70;56.30
67557;DHT22;54387;53.526;49.300;2023-08-08T00:16:58;19.70;56.10
67557;DHT22;54387;53.526;49.300;2023-08-08T00:19:24;19.60;56.00
67557;DHT22;54387;53.526;49.300;2023-08-08T00:21:50;19.60;56.00
67557;DHT22;54387;53.526;49.300;2023-08-08T00:24:16;19.60;55.90
67557;DHT22;54387;53.526;49.300;2023-08-08T00:26:42;19.60;56.00
67557;DHT22;54387;53.526;49.300;2023-08-08T00:29:08;19.60;56.10
67557;DHT22;54387;53.526;49.300;2023-08-08T00:31:34;19.50;56.20
67557;DHT22;54387;53.526;49.300;2023-08-08T00:34:00;19.50;56.30
67557;DHT22;54387;53.526;49.300;2023-08-08T00:36:26;19.40;56.30
67557;DHT22;54387;53.526;49.300;2023-08-08T00:38:52;19.40;56.60
67557;DHT22;54387;53.526;49.300;2023-08-08T00:41:18;19.40;56.80
67557;DHT22;54387;53.526;49.300;2023-08-08T00:43:44;19.40;57.20
67557;DHT22;54387;53.526;49.300;2023-08-08T00:46:11;19.40;57.20
67557;DHT22;54387;53.526;49.300;2023-08-08T00:48:37;19.30;57.00
67557;DHT22;54387;53.526;49.300;2023-08-08T00:51:03;19.30;57.10
67557;DHT22;54387;53.526;49.300;2023-08-08T00:53:29;19.30;57.30
67557;DHT22;54387;53.526;49.300;2023-08-08T00:55:58;19.30;57.10
67557;DHT22;54387;53.526;49.300;2023-08-08T00:58:24;19.20;57.00
67557;DHT22;54387;53.526;49.300;2023-08-08T01:00:50;19.20;57.40
67557;DHT22;54387;53.526;49.300;2023-08-08T01:03:18;19.20;57.20
67557;DHT22;54387;53.526;49.300;2023-08-08T01:05:47;19.20;57.20
67557;DHT22;54387;53.526;49.300;2023-08-08T01:08:15;19.20;57.20
67557;DHT22;54387;53.526;49.300;2023-08-08T01:10:42;19.10;57.20
67557;DHT22;54387;53.526;49.300;2023-08-08T01:13:10;19.10;57.20
67557;DHT22;54387;53.526;49.300;2023-08-08T01:15:37;19.10;57.30
67557;DHT22;54387;53.526;49.300;2023-08-08T01:18:04;19.10;57.30
67557;DHT22;54387;53.526;49.300;2023-08-08T01:20:31;19.10;57.20
67557;DHT22;54387;53.526;49.300;2023-08-08T01:25:43;19.10;57.20
67557;DHT22;54387;53.526;49.300;2023-08-08T01:28:10;19.00;57.80
67557;DHT22;54387;53.526;49.300;2023-08-08T01:30:36;19.00;58.10
67557;DHT22;54387;53.526;49.300;2023-08-08T01:33:02;19.00;58.10
67557;DHT22;54387;53.526;49.300;2023-08-08T01:35:29;19.00;58.10
67557;DHT22;54387;53.526;49.300;2023-08-08T01:37:59;19.00;58.00
67557;DHT22;54387;53.526;49.300;2023-08-08T01:40:26;19.00;58.00
67557;DHT22;54387;53.526;49.300;2023-08-08T01:42:53;19.00;58.30
67557;DHT22;54387;53.526;49.300;2023-08-08T01:45:20;19.00;58.60
67557;DHT22;54387;53.526;49.300;2023-08-08T01:47:50;19.00;58.60
67557;DHT22;54387;53.526;49.300;2023-08-08T01:50:16;18.90;58.60
67557;DHT22;54387;53.526;49.300;2023-08-08T01:52:43;18.90;58.80
67557;DHT22;54387;53.526;49.300;2023-08-08T01:55:09;18.90;59.10
67557;DHT22;54387;53.526;49.300;2023-08-08T01:57:35;18.90;59.20
67557;DHT22;54387;53.526;49.300;2023-08-08T02:00:01;18.90;59.20
67557;DHT22;54387;53.526;49.300;2023-08-08T02:02:29;19.00;59.10
67557;DHT22;54387;53.526;49.300;2023-08-08T02:04:55;19.00;58.90
67557;DHT22;54387;53.526;49.300;2023-08-08T02:07:21;19.00;58.90
67557;DHT22;54387;53.526;49.300;2023-08-08T02:09:47;19.00;58.90
67557;DHT22;54387;53.526;49.300;2023-08-08T02:12:16;19.00;58.70
67557;DHT22;54387;53.526;49.300;2023-08-08T02:14:42;19.00;58.60
67557;DHT22;54387;53.526;49.300;2023-08-08T02:17:08;19.00;58.90
67557;DHT22;54387;53.526;49.300;2023-08-08T02:19:34;19.00;58.90
67557;DHT22;54387;53.526;49.300;2023-08-08T02:22:00;19.10;59.00
67557;DHT22;54387;53.526;49.300;2023-08-08T02:24:26;19.00;59.70
67557;DHT22;54387;53.526;49.300;2023-08-08T02:26:52;19.10;58.70
67557;DHT22;54387;53.526;49.300;2023-08-08T02:29:18;19.10;58.70
67557;DHT22;54387;53.526;49.300;2023-08-08T02:31:44;19.10;58.70
67557;DHT22;54387;53.526;49.300;2023-08-08T02:34:10;19.20;58.60
67557;DHT22;54387;53.526;49.300;2023-08-08T02:36:36;19.20;58.60
67557;DHT22;54387;53.526;49.300;2023-08-08T02:39:02;19.30;58.60
67557;DHT22;54387;53.526;49.300;2023-08-08T02:41:28;19.30;58.90
67557;DHT22;54387;53.526;49.300;2023-08-08T02:43:54;19.30;58.60
67557;DHT22;54387;53.526;49.300;2023-08-08T02:46:20;19.30;58.60
67557;DHT22;54387;53.526;49.300;2023-08-08T02:48:46;19.40;58.80
67557;DHT22;54387;53.526;49.300;2023-08-08T02:51:12;19.40;58.70
67557;DHT22;54387;53.526;49.300;2023-08-08T02:53:38;19.50;58.60
67557;DHT22;54387;53.526;49.300;2023-08-08T02:56:04;19.50;58.60
67557;DHT22;54387;53.526;49.300;2023-08-08T02:58:30;19.50;58.40
67557;DHT22;54387;53.526;49.300;2023-08-08T03:00:56;19.60;58.40
67557;DHT22;54387;53.526;49.300;2023-08-08T03:03:22;19.60;58.30
67557;DHT22;54387;53.526;49.300;2023-08-08T03:05:49;19.70;58.30
67557;DHT22;54387;53.526;49.300;2023-08-08T03:08:15;19.80;58.30
67557;DHT22;54387;53.526;49.300;2023-08-08T03:10:41;19.80;58.10
67557;DHT22;54387;53.526;49.300;2023-08-08T03:13:07;19.90;58.00
67557;DHT22;54387;53.526;49.300;2023-08-08T03:15:33;20.00;58.00
67557;DHT22;54387;53.526;49.300;2023-08-08T03:18:01;20.00;57.80
67557;DHT22;54387;53.526;49.300;2023-08-08T03:20:27;20.10;57.60
67557;DHT22;54387;53.526;49.300;2023-08-08T03:22:53;20.20;57.50
67557;DHT22;54387;53.526;49.300;2023-08-08T03:25:19;20.20;57.40
67557;DHT22;54387;53.526;49.300;2023-08-08T03:27:45;20.30;57.30
67557;DHT22;54387;53.526;49.300;2023-08-08T03:30:11;20.30;57.20
67557;DHT22;54387;53.526;49.300;2023-08-08T03:32:37;20.40;57.10
67557;DHT22;54387;53.526;49.300;2023-08-08T03:35:03;20.50;57.10
67557;DHT22;54387;53.526;49.300;2023-08-08T03:37:30;20.60;57.00
67557;DHT22;54387;53.526;49.300;2023-08-08T03:39:56;20.60;56.80
67557;DHT22;54387;53.526;49.300;2023-08-08T03:42:22;20.70;56.80
67557;DHT22;54387;53.526;49.300;2023-08-08T03:44:48;20.80;56.80
67557;DHT22;54387;53.526;49.300;2023-08-08T03:47:14;20.80;56.60
67557;DHT22;54387;53.526;49.300;2023-08-08T03:49:40;20.90;56.60
67557;DHT22;54387;53.526;49.300;2023-08-08T03:52:06;21.00;56.50
67557;DHT22;54387;53.526;49.300;2023-08-08T03:54:32;21.10;56.60
67557;DHT22;54387;53.526;49.300;2023-08-08T03:56:58;21.10;56.30
67557;DHT22;54387;53.526;49.300;2023-08-08T03:59:24;21.10;56.20
67557;DHT22;54387;53.526;49.300;2023-08-08T04:01:50;21.20;56.20
67557;DHT22;54387;53.526;49.300;2023-08-08T04:04:16;21.30;56.10
67557;DHT22;54387;53.526;49.300;2023-08-08T04:06:42;21.40;56.10
67557;DHT22;54387;53.526;49.300;2023-08-08T04:09:08;21.40;56.00
67557;DHT22;54387;53.526;49.300;2023-08-08T04:11:34;21.50;55.80
67557;DHT22;54387;53.526;49.300;2023-08-08T04:14:01;21.50;55.60
67557;DHT22;54387;53.526;49.300;2023-08-08T04:16:28;21.60;55.60
67557;DHT22;54387;53.526;49.300;2023-08-08T04:18:54;21.70;55.50
67557;DHT22;54387;53.526;49.300;2023-08-08T04:21:20;21.70;55.40
67557;DHT22;54387;53.526;49.300;2023-08-08T04:23:46;21.80;55.10
67557;DHT22;54387;53.526;49.300;2023-08-08T04:26:12;21.90;55.20
67557;DHT22;54387;53.526;49.300;2023-08-08T04:28:38;21.90;54.90
67557;DHT22;54387;53.526;49.300;2023-08-08T04:31:04;22.00;54.80
67557;DHT22;54387;53.526;49.300;2023-08-08T04:33:30;22.10;54.70
67557;DHT22;54387;53.526;49.300;2023-08-08T04:35:56;22.20;54.50
67557;DHT22;54387;53.526;49.300;2023-08-08T04:38:22;22.20;54.20
67557;DHT22;54387;53.526;49.300;2023-08-08T04:40:48;22.30;54.00
67557;DHT22;54387;53.526;49.300;2023-08-08T04:43:14;22.40;53.80
67557;DHT22;54387;53.526;49.300;2023-08-08T04:45:40;22.50;53.70
67557;DHT22;54387;53.526;49.300;2023-08-08T04:48:06;22.60;53.70
67557;DHT22;54387;53.526;49.300;2023-08-08T04:50:33;22.60;53.40
67557;DHT22;54387;53.526;49.300;2023-08-08T04:52:59;22.70;53.00
67557;DHT22;54387;53.526;49.300;2023-08-08T04:55:25;22.80;52.90
67557;DHT22;54387;53.526;49.300;2023-08-08T04:57:51;22.80;52.80
67557;DHT22;54387;53.526;49.300;2023-08-08T05:00:17;22.90;52.70
67557;DHT22;54387;53.526;49.300;2023-08-08T05:02:43;23.00;52.50
67557;DHT22;54387;53.526;49.300;2023-08-08T05:05:09;23.00;52.20
67557;DHT22;54387;53.526;49.300;2023-08-08T05:07:35;23.10;52.20
67557;DHT22;54387;53.526;49.300;2023-08-08T05:10:03;23.20;52.20
67557;DHT22;54387;53.526;49.300;2023-08-08T05:12:29;23.20;51.90
67557;DHT22;54387;53.526;49.300;2023-08-08T05:14:55;23.40;51.80
67557;DHT22;54387;53.526;49.300;2023-08-08T05:17:21;23.50;51.60
67557;DHT22;54387;53.526;49.300;2023-08-08T05:19:48;23.50;51.30
67557;DHT22;54387;53.526;49.300;2023-08-08T05:22:14;23.60;51.10
67557;DHT22;54387;53.526;49.300;2023-08-08T05:24:40;23.70;50.90
67557;DHT22;54387;53.526;49.300;2023-08-08T05:27:06;23.80;50.60
67557;DHT22;54387;53.526;49.300;2023-08-08T05:29:32;23.90;50.40
67557;DHT22;54387;53.526;49.300;2023-08-08T05:31:58;23.90;50.30
67557;DHT22;54387;53.526;49.300;2023-08-08T05:34:24;24.00;49.30
67557;DHT22;54387;53.526;49.300;2023-08-08T05:36:50;24.10;49.10
67557;DHT22;54387;53.526;49.300;2023-08-08T05:39:17;24.20;48.90
67557;DHT22;54387;53.526;49.300;2023-08-08T05:41:43;24.30;49.00
67557;DHT22;54387;53.526;49.300;2023-08-08T05:44:09;24.40;48.80
67557;DHT22;54387;53.526;49.300;2023-08-08T05:46:35;24.50;48.50
67557;DHT22;54387;53.526;49.300;2023-08-08T05:49:01;24.60;48.10
67557;DHT22;54387;53.526;49.300;2023-08-08T05:51:27;24.70;47.80
67557;DHT22;54387;53.526;49.300;2023-08-08T05:53:53;24.80;47.60
67557;DHT22;54387;53.526;49.300;2023-08-08T05:56:19;24.90;47.30
67557;DHT22;54387;53.526;49.300;2023-08-08T05:58:45;25.00;47.30
67557;DHT22;54387;53.526;49.300;2023-08-08T06:01:11;25.00;46.70
67557;DHT22;54387;53.526;49.300;2023-08-08T06:03:37;25.10;46.30
67557;DHT22;54387;53.526;49.300;2023-08-08T06:06:04;25.20;46.20
67557;DHT22;54387;53.526;49.300;2023-08-08T06:08:30;25.30;46.20
67557;DHT22;54387;53.526;49.300;2023-08-08T06:10:57;25.40;46.10
67557;DHT22;54387;53.526;49.300;2023-08-08T06:13:23;25.50;46.00
67557;DHT22;54387;53.526;49.300;2023-08-08T06:15:49;25.60;45.80
67557;DHT22;54387;53.526;49.300;2023-08-08T06:18:16;25.70;45.80
67557;DHT22;54387;53.526;49.300;2023-08-08T06:20:42;25.80;45.50
67557;DHT22;54387;53.526;49.300;2023-08-08T06:23:08;25.80;44.70
67557;DHT22;54387;53.526;49.300;2023-08-08T06:25:34;25.90;44.70
67557;DHT22;54387;53.526;49.300;2023-08-08T06:28:00;26.00;44.30
67557;DHT22;54387;53.526;49.300;2023-08-08T06:30:26;26.00;44.00
67557;DHT22;54387;53.526;49.300;2023-08-08T06:32:52;26.10;44.00
67557;DHT22;54387;53.526;49.300;2023-08-08T06:35:18;26.20;43.80
67557;DHT22;54387;53.526;49.300;2023-08-08T06:37:44;26.30;43.70
67557;DHT22;54387;53.526;49.300;2023-08-08T06:40:11;26.40;43.30
67557;DHT22;54387;53.526;49.300;2023-08-08T06:42:38;26.50;43.00
67557;DHT22;54387;53.526;49.300;2023-08-08T06:45:04;26.60;43.00
67557;DHT22;54387;53.526;49.300;2023-08-08T06:47:31;26.60;42.90
67557;DHT22;54387;53.526;49.300;2023-08-08T06:49:57;26.60;42.70
67557;DHT22;54387;53.526;49.300;2023-08-08T06:52:23;26.70;42.60
67557;DHT22;54387;53.526;49.300;2023-08-08T06:54:50;26.80;42.20
67557;DHT22;54387;53.526;49.300;2023-08-08T06:57:16;26.90;42.10
67557;DHT22;54387;53.526;49.300;2023-08-08T06:59:42;26.90;41.80
67557;DHT22;54387;53.526;49.300;2023-08-08T07:02:08;27.00;41.80
67557;DHT22;54387;53.526;49.300;2023-08-08T07:04:37;27.00;41.90
67557;DHT22;54387;53.526;49.300;2023-08-08T07:07:03;27.00;41.70
67557;DHT22;54387;53.526;49.300;2023-08-08T07:09:30;27.10;41.50
67557;DHT22;54387;53.526;49.300;2023-08-08T07:11:56;27.10;41.10
67557;DHT22;54387;53.526;49.300;2023-08-08T07:14:23;27.20;40.90
67557;DHT22;54387;53.526;49.300;2023-08-08T07:16:49;27.30;40.50
67557;DHT22;54387;53.526;49.300;2023-08-08T07:19:15;27.40;40.60
67557;DHT22;54387;53.526;49.300;2023-08-08T07:21:42;27.50;40.20
67557;DHT22;54387;53.526;49.300;2023-08-08T07:24:08;27.50;40.20
67557;DHT22;54387;53.526;49.300;2023-08-08T07:26:35;27.60;39.80
67557;DHT22;54387;53.526;49.300;2023-08-08T07:29:01;27.60;39.90
67557;DHT22;54387;53.526;49.300;2023-08-08T07:31:29;27.60;39.70
67557;DHT22;54387;53.526;49.300;2023-08-08T07:33:55;27.70;39.90
67557;DHT22;54387;53.526;49.300;2023-08-08T07:36:21;27.80;39.90
67557;DHT22;54387;53.526;49.300;2023-08-08T07:38:49;27.90;39.70
67557;DHT22;54387;53.526;49.300;2023-08-08T07:41:16;28.00;39.50
67557;DHT22;54387;53.526;49.300;2023-08-08T07:43:44;28.20;39.30
67557;DHT22;54387;53.526;49.300;2023-08-08T07:46:10;28.30;39.10
67557;DHT22;54387;53.526;49.300;2023-08-08T07:48:38;28.40;39.10
67557;DHT22;54387;53.526;49.300;2023-08-08T07:51:04;28.50;38.60
67557;DHT22;54387;53.526;49.300;2023-08-08T07:53:30;28.50;38.30
67557;DHT22;54387;53.526;49.300;2023-08-08T07:55:57;28.60;37.80
67557;DHT22;54387;53.526;49.300;2023-08-08T07:58:23;28.60;37.60
67557;DHT22;54387;53.526;49.300;2023-08-08T08:00:51;28.70;36.80
67557;DHT22;54387;53.526;49.300;2023-08-08T08:03:19;28.70;36.80
67557;DHT22;54387;53.526;49.300;2023-08-08T08:05:45;28.70;36.60
67557;DHT22;54387;53.526;49.300;2023-08-08T08:08:11;28.80;36.70
67557;DHT22;54387;53.526;49.300;2023-08-08T08:10:38;28.90;35.90
67557;DHT22;54387;53.526;49.300;2023-08-08T08:13:04;29.10;36.00
67557;DHT22;54387;53.526;49.300;2023-08-08T08:15:30;29.30;35.80
67557;DHT22;54387;53.526;49.300;2023-08-08T08:17:56;29.50;35.70
67557;DHT22;54387;53.526;49.300;2023-08-08T08:20:22;29.60;35.50
67557;DHT22;54387;53.526;49.300;2023-08-08T08:22:50;29.80;35.00
67557;DHT22;54387;53.526;49.300;2023-08-08T08:25:19;29.80;35.50
67557;DHT22;54387;53.526;49.300;2023-08-08T08:27:45;29.80;34.40
67557;DHT22;54387;53.526;49.300;2023-08-08T08:30:11;29.80;34.60
67557;DHT22;54387;53.526;49.300;2023-08-08T08:32:39;29.90;34.60
67557;DHT22;54387;53.526;49.300;2023-08-08T08:35:05;30.00;34.90
67557;DHT22;54387;53.526;49.300;2023-08-08T08:37:32;30.10;34.30
67557;DHT22;54387;53.526;49.300;2023-08-08T08:39:59;30.20;34.10
67557;DHT22;54387;53.526;49.300;2023-08-08T08:42:26;30.20;33.70
67557;DHT22;54387;53.526;49.300;2023-08-08T08:44:52;30.00;33.70
67557;DHT22;54387;53.526;49.300;2023-08-08T08:47:20;29.90;33.80
67557;DHT22;54387;53.526;49.300;2023-08-08T08:49:47;29.70;34.00
67557;DHT22;54387;53.526;49.300;2023-08-08T08:52:13;29.60;34.20
67557;DHT22;54387;53.526;49.300;2023-08-08T08:54:40;29.60;34.40
67557;DHT22;54387;53.526;49.300;2023-08-08T08:57:06;29.70;34.20
67557;DHT22;54387;53.526;49.300;2023-08-08T08:59:33;29.70;34.00
67557;DHT22;54387;53.526;49.300;2023-08-08T09:02:00;29.70;34.00
67557;DHT22;54387;53.526;49.300;2023-08-08T09:04:27;29.50;33.80
67557;DHT22;54387;53.526;49.300;2023-08-08T09:06:53;29.40;33.90
67557;DHT22;54387;53.526;49.300;2023-08-08T09:09:20;29.20;33.90
67557;DHT22;54387;53.526;49.300;2023-08-08T09:11:49;29.20;34.50
67557;DHT22;54387;53.526;49.300;2023-08-08T09:14:23;29.30;34.50
67557;DHT22;54387;53.526;49.300;2023-08-08T09:16:50;29.40;34.40
67557;DHT22;54387;53.526;49.300;2023-08-08T09:19:19;29.60;34.10
67557;DHT22;54387;53.526;49.300;2023-08-08T09:21:46;29.90;33.90
67557;DHT22;54387;53.526;49.300;2023-08-08T09:24:12;30.30;34.00
67557;DHT22;54387;53.526;49.300;2023-08-08T09:26:40;30.90;33.50
67557;DHT22;54387;53.526;49.300;2023-08-08T09:29:07;31.50;32.40
67557;DHT22;54387;53.526;49.300;2023-08-08T09:31:36;32.10;32.30
67557;DHT22;54387;53.526;49.300;2023-08-08T09:34:03;33.00;32.30
67557;DHT22;54387;53.526;49.300;2023-08-08T09:36:29;34.00;30.90
67557;DHT22;54387;53.526;49.300;2023-08-08T09:38:56;35.00;30.00
67557;DHT22;54387;53.526;49.300;2023-08-08T09:41:22;36.40;28.60
67557;DHT22;54387;53.526;49.300;2023-08-08T09:43:49;37.90;27.40
67557;DHT22;54387;53.526;49.300;2023-08-08T09:46:16;39.80;26.50
67557;DHT22;54387;53.526;49.300;2023-08-08T09:48:44;41.70;25.80
67557;DHT22;54387;53.526;49.300;2023-08-08T09:51:10;43.10;24.10
67557;DHT22;54387;53.526;49.300;2023-08-08T09:53:38;42.70;23.40
67557;DHT22;54387;53.526;49.300;2023-08-08T09:56:05;43.00;23.30
67557;DHT22;54387;53.526;49.300;2023-08-08T09:58:33;43.90;23.10
67557;DHT22;54387;53.526;49.300;2023-08-08T10:00:59;45.10;22.70
67557;DHT22;54387;53.526;49.300;2023-08-08T10:03:25;46.30;21.60
67557;DHT22;54387;53.526;49.300;2023-08-08T10:05:52;47.10;21.20
67557;DHT22;54387;53.526;49.300;2023-08-08T10:08:18;48.10;20.90
67557;DHT22;54387;53.526;49.300;2023-08-08T10:10:45;48.90;20.40
67557;DHT22;54387;53.526;49.300;2023-08-08T10:13:21;50.00;20.50
67557;DHT22;54387;53.526;49.300;2023-08-08T10:15:48;51.40;20.60
67557;DHT22;54387;53.526;49.300;2023-08-08T10:18:14;52.30;19.80
67557;DHT22;54387;53.526;49.300;2023-08-08T10:20:44;50.50;19.10
67557;DHT22;54387;53.526;49.300;2023-08-08T10:23:16;47.50;19.70
67557;DHT22;54387;53.526;49.300;2023-08-08T10:25:48;44.70;20.40
67557;DHT22;54387;53.526;49.300;2023-08-08T10:28:17;42.30;21.10
67557;DHT22;54387;53.526;49.300;2023-08-08T10:30:46;40.90;22.60
67557;DHT22;54387;53.526;49.300;2023-08-08T10:33:16;41.00;22.00
67557;DHT22;54387;53.526;49.300;2023-08-08T10:35:50;40.10;22.20
67557;DHT22;54387;53.526;49.300;2023-08-08T10:38:17;38.80;22.90
67557;DHT22;54387;53.526;49.300;2023-08-08T10:40:43;37.30;23.80
67557;DHT22;54387;53.526;49.300;2023-08-08T10:43:10;36.30;24.70
67557;DHT22;54387;53.526;49.300;2023-08-08T10:45:37;37.20;24.90
67557;DHT22;54387;53.526;49.300;2023-08-08T10:48:09;39.50;24.00
67557;DHT22;54387;53.526;49.300;2023-08-08T10:50:42;41.90;22.90
67557;DHT22;54387;53.526;49.300;2023-08-08T10:53:08;44.00;22.20
67557;DHT22;54387;53.526;49.300;2023-08-08T10:55:38;45.70;21.20
67557;DHT22;54387;53.526;49.300;2023-08-08T10:58:06;47.20;20.60
67557;DHT22;54387;53.526;49.300;2023-08-08T11:00:33;48.70;20.60
67557;DHT22;54387;53.526;49.300;2023-08-08T11:03:00;49.90;19.40
67557;DHT22;54387;53.526;49.300;2023-08-08T11:05:30;50.60;19.10
67557;DHT22;54387;53.526;49.300;2023-08-08T11:07:57;51.00;19.10
67557;DHT22;54387;53.526;49.300;2023-08-08T11:10:23;51.50;19.00
67557;DHT22;54387;53.526;49.300;2023-08-08T11:12:59;51.60;19.10
67557;DHT22;54387;53.526;49.300;2023-08-08T11:15:25;51.20;18.70
67557;DHT22;54387;53.526;49.300;2023-08-08T11:17:54;49.20;19.00
67557;DHT22;54387;53.526;49.300;2023-08-08T11:20:21;46.80;19.40
67557;DHT22;54387;53.526;49.300;2023-08-08T11:22:53;44.80;19.90
67557;DHT22;54387;53.526;49.300;2023-08-08T11:25:19;44.20;20.40
67557;DHT22;54387;53.526;49.300;2023-08-08T11:27:49;44.40;20.30
67557;DHT22;54387;53.526;49.300;2023-08-08T11:30:16;45.00;20.00
67557;DHT22;54387;53.526;49.300;2023-08-08T11:32:43;44.40;19.80
67557;DHT22;54387;53.526;49.300;2023-08-08T11:35:09;43.30;20.00
67557;DHT22;54387;53.526;49.300;2023-08-08T11:37:35;41.80;20.50
67557;DHT22;54387;53.526;49.300;2023-08-08T11:40:01;40.30;21.10
67557;DHT22;54387;53.526;49.300;2023-08-08T11:42:27;39.10;21.70
67557;DHT22;54387;53.526;49.300;2023-08-08T11:44:53;38.10;22.30
67557;DHT22;54387;53.526;49.300;2023-08-08T11:47:24;37.30;22.70
67557;DHT22;54387;53.526;49.300;2023-08-08T11:49:50;36.80;23.20
67557;DHT22;54387;53.526;49.300;2023-08-08T11:52:18;36.30;23.60
67557;DHT22;54387;53.526;49.300;2023-08-08T11:54:44;36.00;24.00
67557;DHT22;54387;53.526;49.300;2023-08-08T11:57:10;35.50;24.20
67557;DHT22;54387;53.526;49.300;2023-08-08T11:59:37;35.10;24.40
67557;DHT22;54387;53.526;49.300;2023-08-08T12:02:03;35.20;24.30
67557;DHT22;54387;53.526;49.300;2023-08-08T12:04:29;35.70;24.10
67557;DHT22;54387;53.526;49.300;2023-08-08T12:07:02;35.80;23.90
67557;DHT22;54387;53.526;49.300;2023-08-08T12:09:32;35.60;24.00
67557;DHT22;54387;53.526;49.300;2023-08-08T12:11:59;35.40;24.20
67557;DHT22;54387;53.526;49.300;2023-08-08T12:14:25;35.40;24.30
67557;DHT22;54387;53.526;49.300;2023-08-08T12:16:53;35.60;24.30
67557;DHT22;54387;53.526;49.300;2023-08-08T12:19:21;35.60;24.30
67557;DHT22;54387;53.526;49.300;2023-08-08T12:21:48;35.50;25.10
67557;DHT22;54387;53.526;49.300;2023-08-08T12:24:14;35.30;24.30
67557;DHT22;54387;53.526;49.300;2023-08-08T12:26:40;35.50;24.20
67557;DHT22;54387;53.526;49.300;2023-08-08T12:29:06;36.60;23.60
67557;DHT22;54387;53.526;49.300;2023-08-08T12:31:32;38.10;23.10
67557;DHT22;54387;53.526;49.300;2023-08-08T12:34:00;39.90;22.50
67557;DHT22;54387;53.526;49.300;2023-08-08T12:36:26;41.00;21.80
67557;DHT22;54387;53.526;49.300;2023-08-08T12:38:52;41.10;21.40
67557;DHT22;54387;53.526;49.300;2023-08-08T12:41:18;41.50;21.10
67557;DHT22;54387;53.526;49.300;2023-08-08T12:43:44;42.10;21.00
67557;DHT22;54387;53.526;49.300;2023-08-08T12:46:10;43.00;20.90
67557;DHT22;54387;53.526;49.300;2023-08-08T12:48:36;43.70;20.40
67557;DHT22;54387;53.526;49.300;2023-08-08T12:51:02;44.40;20.20
67557;DHT22;54387;53.526;49.300;2023-08-08T12:53:29;45.00;19.70
67557;DHT22;54387;53.526;49.300;2023-08-08T12:55:55;45.50;19.50
67557;DHT22;54387;53.526;49.300;2023-08-08T12:58:21;45.90;19.30
67557;DHT22;54387;53.526;49.300;2023-08-08T13:00:47;46.40;19.10
67557;DHT22;54387;53.526;49.300;2023-08-08T13:03:13;46.80;19.20
67557;DHT22;54387;53.526;49.300;2023-08-08T13:05:40;47.20;19.00
67557;DHT22;54387;53.526;49.300;2023-08-08T13:08:06;47.00;18.90
67557;DHT22;54387;53.526;49.300;2023-08-08T13:10:32;46.70;18.90
67557;DHT22;54387;53.526;49.300;2023-08-08T13:12:58;45.90;19.00
67557;DHT22;54387;53.526;49.300;2023-08-08T13:15:24;44.80;19.90
67557;DHT22;54387;53.526;49.300;2023-08-08T13:17:50;43.70;19.50
67557;DHT22;54387;53.526;49.300;2023-08-08T13:20:16;42.80;19.90
67557;DHT22;54387;53.526;49.300;2023-08-08T13:22:42;42.10;20.10
67557;DHT22;54387;53.526;49.300;2023-08-08T13:25:08;41.20;20.20
67557;DHT22;54387;53.526;49.300;2023-08-08T13:27:34;40.20;20.50
67557;DHT22;54387;53.526;49.300;2023-08-08T13:30:01;39.20;20.90
67557;DHT22;54387;53.526;49.300;2023-08-08T13:32:27;38.40;21.20
67557;DHT22;54387;53.526;49.300;2023-08-08T13:34:54;37.60;21.60
67557;DHT22;54387;53.526;49.300;2023-08-08T13:37:20;37.10;21.80
67557;DHT22;54387;53.526;49.300;2023-08-08T13:39:46;36.60;22.10
67557;DHT22;54387;53.526;49.300;2023-08-08T13:42:12;36.20;22.40
67557;DHT22;54387;53.526;49.300;2023-08-08T13:44:38;35.70;22.50
67557;DHT22;54387;53.526;49.300;2023-08-08T13:47:04;35.40;22.90
67557;DHT22;54387;53.526;49.300;2023-08-08T13:49:31;35.10;23.00
67557;DHT22;54387;53.526;49.300;2023-08-08T13:51:57;34.80;23.80
67557;DHT22;54387;53.526;49.300;2023-08-08T13:54:23;34.50;24.20
67557;DHT22;54387;53.526;49.300;2023-08-08T13:56:50;34.40;24.50
67557;DHT22;54387;53.526;49.300;2023-08-08T13:59:16;34.50;24.70
67557;DHT22;54387;53.526;49.300;2023-08-08T14:01:42;34.80;24.40
67557;DHT22;54387;53.526;49.300;2023-08-08T14:04:08;34.90;24.10
67557;DHT22;54387;53.526;49.300;2023-08-08T14:06:34;34.80;24.10
67557;DHT22;54387;53.526;49.300;2023-08-08T14:09:00;34.60;24.20
67557;DHT22;54387;53.526;49.300;2023-08-08T14:11:26;34.40;24.20
67557;DHT22;54387;53.526;49.300;2023-08-08T14:13:52;34.20;24.40
67557;DHT22;54387;53.526;49.300;2023-08-08T14:16:18;34.00;24.80
67557;DHT22;54387;53.526;49.300;2023-08-08T14:18:44;33.90;25.10
67557;DHT22;54387;53.526;49.300;2023-08-08T14:21:10;33.90;25.50
67557;DHT22;54387;53.526;49.300;2023-08-08T14:23:36;33.80;25.70
67557;DHT22;54387;53.526;49.300;2023-08-08T14:26:02;33.90;25.70
67557;DHT22;54387;53.526;49.300;2023-08-08T14:28:28;33.80;25.50
67557;DHT22;54387;53.526;49.300;2023-08-08T14:30:54;33.70;25.40
67557;DHT22;54387;53.526;49.300;2023-08-08T14:33:21;33.60;25.30
67557;DHT22;54387;53.526;49.300;2023-08-08T14:35:47;33.60;25.30
67557;DHT22;54387;53.526;49.300;2023-08-08T14:38:13;33.50;25.40
67557;DHT22;54387;53.526;49.300;2023-08-08T14:40:39;33.30;25.60
67557;DHT22;54387;53.526;49.300;2023-08-08T14:43:05;33.30;26.20
67557;DHT22;54387;53.526;49.300;2023-08-08T14:45:36;33.60;26.30
67557;DHT22;54387;53.526;49.300;2023-08-08T14:48:04;34.40;26.10
67557;DHT22;54387;53.526;49.300;2023-08-08T14:50:31;35.00;25.60
67557;DHT22;54387;53.526;49.300;2023-08-08T14:52:57;35.20;25.30
67557;DHT22;54387;53.526;49.300;2023-08-08T14:55:23;35.00;25.30
67557;DHT22;54387;53.526;49.300;2023-08-08T14:57:49;34.50;25.50
67557;DHT22;54387;53.526;49.300;2023-08-08T15:00:16;33.90;25.70
67557;DHT22;54387;53.526;49.300;2023-08-08T15:02:42;33.40;25.70
67557;DHT22;54387;53.526;49.300;2023-08-08T15:05:08;32.90;25.70
67557;DHT22;54387;53.526;49.300;2023-08-08T15:07:34;32.40;25.90
67557;DHT22;54387;53.526;49.300;2023-08-08T15:10:00;32.00;26.10
67557;DHT22;54387;53.526;49.300;2023-08-08T15:12:26;31.60;26.10
67557;DHT22;54387;53.526;49.300;2023-08-08T15:14:52;31.20;26.20